Relevés horaires Matro (Suisse)


Relevés horaires à Matro - Mardi 14 Oct. 2014
Heure UTC1 Température [°C] Vent [km/h] Hum. [%] Pres.4 [hPa] Visi. [Km] Nébu. [octa] Préc.5 [mm] Cond.
2m. Res. Ros. Dir.2 Vit. Moy. Raf.3
23:00 3.0 -2.3 2.5 SE 27.8 31.5 37.0 97 850(-0.2/3h) -- -- -- --
22:00 3.4 -2.2 2.6 SSE 31.5 33.3 40.7 94 850(0.1/3h) -- -- -- --
21:00 4.2 -1 2.5 SSE 29.6 27.8 31.5 89 850(0.0/3h) -- -- -- --
20:00 4.1 -0.5 1.0 SSE 24.1 24.1 27.8 80 850(0.0/3h) -- -- -- --
19:00 4.2 0.3 1.7 SSE 18.5 20.4 25.9 84 850(-0.2/3h) -- -- -- --
18:00 4.0 0.3 2.3 SSE 16.7 27.8 33.3 89 850(-0.3/3h) -- -- -- --
17:00 4.0 -0.2 2.6 SE 20.4 22.2 24.1 91 850(-0.3/3h) -- -- -- --
16:00 3.9 -0.1 2.0 SE 18.5 20.4 24.1 87 850(-0.1/3h) -- -- -- --
15:00 4.1 -0.5 1.4 SSE 24.1 27.8 33.3 83 850(-0.1/3h) -- -- -- --
14:00 4.2 0.3 1.0 SSE 18.5 20.4 31.5 80 850(-0.6/3h) -- -- -- --
13:00 3.8 -0.5 3.5 SSE 20.4 27.8 33.3 98 850(-0.6/3h) -- -- -- --
12:00 3.4 -1.8 2.9 SE 27.8 27.8 37.0 97 850(-0.2/3h) -- -- -- --
11:00 3.1 -1.4 3.1 SSE 20.4 27.8 37.0 100 850(0.6/3h) -- -- -- --
10:00 3.6 -1.6 3.6 SE 27.8 25.9 33.3 100 850(1.0/3h) -- -- -- --
09:00 3.4 -1.6 3.2 SE 25.9 25.9 31.5 99 850(1.2/3h) -- -- -- --
08:00 3.3 -1.4 3.2 SSE 22.2 22.2 27.8 99 850(1.2/3h) -- -- -- --
07:00 3.3 -1.4 3.3 SE 22.2 22.2 24.1 100 850(0.5/3h) -- -- -- --
06:00 3.1 -1.1 2.8 SE 18.5 18.5 24.1 98 850(0.0/3h) -- -- -- --
05:00 3.1 -0.2 1.5 E 13.0 13.0 16.7 89 850(-0.5/3h) -- -- -- --
04:00 2.5 1 1.4 E 5.6 11.1 14.8 92 850(-0.5/3h) -- -- -- --
03:00 2.2 -0.9 1.1 ESE 11.1 18.5 24.1 92 850(0.0/3h) -- -- -- --
02:00 2.1 -0.6 1.4 ESE 9.3 9.3 14.8 95 850(0.3/3h) -- -- -- --
01:00 1.7 -0.6 1.1 NE 7.4 18.5 24.1 96 850(0.8/3h) -- -- -- --
00:00 1.4 -4.2 1.0 N 25.9 40.7 66.7 97 850(0.9/3h) -- -- -- --

1 Coordinated Universal Time. Actuellement il est 18:00 locale et 16:00 UTC.

2 Le vent souffle depuis la direction indiquée vers la direction oposée.

3 Les rafales max. sont disponible 40 min après l'heure du relevé.

4 Pour les stations d'altitude (plus de 600m) le géopotentiel du niveau le plus proche de la pression obligatoire est indiqué.

5 Les stations disposant d'un diffuseur peuvent indiquer "trace". Cela signifie que des précipitations ont touchés le sol mais que la quantité est inférieure à 0.1 mm.

Copyright

Les données affichées sur cette page sont la propriété exclusive de Météo Suisse.

Récapitulatif de la journée
Température [°C] Vent [km/h] Ensoleillement4 [h] Precipitations totale5 [mm] Pression [Hpa]
Min1 Max.2 Moy.3 Max. Min Max.
1.4 4.7 23.5 66.7 1 h 30 min 0 850.0 850.0

1 Température minimale relevée entre 18:00 UTC la veille et 18:00 UTC le jour donné.

2 Température maximale relevée entre 06:00 UTC le jour donné et 06:00 UTC le lendemain.

3 Vent moyen de la journée basé sur les relevés horaires.

4 Ensoleillement en heures relevé entre 06:00 UTC la veille et 06:00 UTC le jour donné.

5 Précipitations totales tombées entre 06:00 UTC la jour donné et 06:00 UTC le lendemain.

Graphiques horaires